Time;durP1;ratioP1;P1;durP2;ratioP2;P2;SDS_P1;SDS_P2;PMS_P1;PMS_P2;Temp;Humidity;BMP_temperature;BMP_pressure;BME280_temperature;BME280_humidity;BME280_pressure;Samples;Min_cycle;Max_cycle;Signal;HPM_P1;HPM_P2
2022/12/26 00:01:52;;;;;;;106.63;57.70;;;;;;;1.97;100.00;98190.22;1732039;82;20984;-78
2022/12/26 00:04:19;;;;;;;103.72;56.15;;;;;;;1.91;100.00;98194.28;1731513;82;20988;-78
2022/12/26 00:06:46;;;;;;;99.07;55.43;;;;;;;1.89;100.00;98187.01;1702585;82;21039;-79
2022/12/26 00:09:13;;;;;;;97.67;55.83;;;;;;;1.87;100.00;98193.88;1731642;82;21161;-78
2022/12/26 00:11:40;;;;;;;90.10;52.55;;;;;;;1.92;100.00;98181.21;1702393;81;21011;-79
2022/12/26 00:14:11;;;;;;;88.97;49.93;;;;;;;1.93;100.00;98194.87;1731753;82;20967;-79
2022/12/26 00:16:42;;;;;;;96.50;49.60;;;;;;;1.99;100.00;98189.98;1731808;82;20987;-79
2022/12/26 00:19:09;;;;;;;103.62;55.28;;;;;;;1.98;100.00;98183.83;1731627;82;20964;-78
2022/12/26 00:21:36;;;;;;;94.05;51.92;;;;;;;1.94;100.00;98183.14;1731828;82;21043;-78
2022/12/26 00:24:04;;;;;;;119.37;59.60;;;;;;;1.89;100.00;98182.48;1731690;82;21003;-78
2022/12/26 00:26:32;;;;;;;110.60;59.03;;;;;;;1.88;100.00;98168.82;1731824;82;20968;-78
2022/12/26 00:28:59;;;;;;;127.60;63.65;;;;;;;1.94;100.00;98163.91;1731952;82;21436;-79
2022/12/26 00:31:29;;;;;;;113.92;58.63;;;;;;;1.95;100.00;98162.87;1732133;82;21028;-79
2022/12/26 00:33:56;;;;;;;101.80;53.65;;;;;;;1.92;100.00;98162.50;1731708;82;21174;-79
2022/12/26 00:36:26;;;;;;;96.97;55.28;;;;;;;1.92;100.00;98152.62;1732090;82;21003;-79
2022/12/26 00:38:54;;;;;;;95.55;53.48;;;;;;;1.97;100.00;98150.13;1731766;82;21535;-78
2022/12/26 00:41:21;;;;;;;99.07;52.67;;;;;;;2.00;100.00;98148.04;1740107;81;20944;-81
2022/12/26 00:43:48;;;;;;;85.03;48.55;;;;;;;1.94;100.00;98150.55;1762046;81;21435;-78
2022/12/26 00:46:15;;;;;;;102.22;51.30;;;;;;;1.92;100.00;98140.60;1762357;81;20999;-78
2022/12/26 00:48:42;;;;;;;115.57;62.40;;;;;;;1.79;100.00;98132.70;1761952;81;21405;-79
2022/12/26 00:51:09;;;;;;;117.05;60.73;;;;;;;1.64;100.00;98124.24;1762357;81;21023;-80
2022/12/26 00:53:36;;;;;;;126.20;66.90;;;;;;;1.63;100.00;98128.77;1762098;81;21432;-79
2022/12/26 00:56:03;;;;;;;124.27;64.65;;;;;;;1.62;100.00;98130.30;1746521;81;20957;-78
2022/12/26 00:58:30;;;;;;;103.67;57.50;;;;;;;1.65;100.00;98129.88;1731826;82;21028;-79
2022/12/26 01:01:10;;;;;;;110.32;57.73;;;;;;;1.74;100.00;98126.41;1732059;82;20997;-79
2022/12/26 01:03:38;;;;;;;110.25;58.87;;;;;;;1.77;100.00;98131.30;1731319;82;21043;-79
2022/12/26 01:06:06;;;;;;;104.03;56.95;;;;;;;1.80;100.00;98130.88;1732057;82;21023;-78
2022/12/26 01:08:33;;;;;;;97.88;55.83;;;;;;;1.91;100.00;98137.64;1731837;82;20981;-79
2022/12/26 01:11:06;;;;;;;91.20;50.50;;;;;;;2.02;100.00;98134.74;1731981;82;21161;-79
2022/12/26 01:13:33;;;;;;;104.92;57.13;;;;;;;2.05;100.00;98120.11;1731656;82;20973;-79
2022/12/26 01:15:59;;;;;;;105.40;58.28;;;;;;;1.96;100.00;98124.41;1732063;82;21505;-79
2022/12/26 01:18:26;;;;;;;102.30;54.18;;;;;;;1.98;100.00;98122.88;1731720;82;20980;-79
2022/12/26 01:21:00;;;;;;;87.90;51.20;;;;;;;2.00;100.00;98128.81;1732250;82;21436;-79
2022/12/26 01:23:26;;;;;;;96.97;52.55;;;;;;;1.94;100.00;98115.80;1731789;82;20977;-79
2022/12/26 01:25:53;;;;;;;110.08;58.78;;;;;;;1.86;100.00;98116.61;1731939;82;21492;-79
2022/12/26 01:28:20;;;;;;;119.02;62.70;;;;;;;1.81;100.00;98114.62;1731831;82;21048;-78
2022/12/26 01:30:47;;;;;;;124.45;64.97;;;;;;;1.90;100.00;98102.59;1732025;82;21059;-78
2022/12/26 01:33:14;;;;;;;116.00;62.67;;;;;;;2.01;100.00;98108.23;1731831;82;21056;-78
2022/12/26 01:35:50;;;;;;;119.80;62.38;;;;;;;1.94;100.00;98098.43;1731984;82;21808;-78
2022/12/26 01:38:17;;;;;;;112.47;65.87;;;;;;;1.98;100.00;98106.84;1731815;82;21015;-79
2022/12/26 01:40:44;;;;;;;103.27;55.90;;;;;;;2.07;100.00;98095.33;1732230;81;21020;-79
2022/12/26 01:43:12;;;;;;;101.45;54.75;;;;;;;2.13;100.00;98099.77;1746499;82;21005;-79
2022/12/26 01:45:39;;;;;;;98.03;59.00;;;;;;;2.07;100.00;98101.49;1769674;81;21512;-80
2022/12/26 01:48:22;;;;;;;105.20;57.05;;;;;;;2.10;100.00;98101.03;1746612;81;21021;-79
2022/12/26 01:50:57;;;;;;;106.43;56.65;;;;;;;2.19;100.00;98101.55;1769592;81;20985;-79
2022/12/26 01:53:29;;;;;;;109.83;56.25;;;;;;;2.29;100.00;98098.34;1746545;82;20993;-78
2022/12/26 01:56:01;;;;;;;95.42;52.50;;;;;;;2.32;100.00;98100.06;1770112;81;21007;-79
2022/12/26 01:58:32;;;;;;;101.42;54.60;;;;;;;2.28;100.00;98102.06;1770200;81;20971;-80
2022/12/26 02:01:01;;;;;;;89.30;48.92;;;;;;;2.22;100.00;98106.44;1770337;81;21107;-79
2022/12/26 02:06:02;;;;;;;81.15;43.75;;;;;;;2.15;100.00;98105.20;1736502;81;21471;-78
2022/12/26 02:08:33;;;;;;;78.55;44.27;;;;;;;2.18;100.00;98102.59;1770115;81;20952;-79
2022/12/26 02:11:20;;;;;;;83.20;44.95;;;;;;;2.21;100.00;98100.80;1781149;80;21004;-79
2022/12/26 02:13:47;;;;;;;75.45;41.63;;;;;;;2.26;100.00;98103.63;1750119;81;21437;-79
2022/12/26 02:16:16;;;;;;;66.62;36.13;;;;;;;2.34;100.00;98107.34;1781218;80;20995;-78
2022/12/26 02:18:43;;;;;;;;;;;;;;;2.41;100.00;98107.27;1783662;80;20976;-78
2022/12/26 02:21:33;;;;;;;63.73;37.60;;;;;;;2.42;100.00;98100.34;1750298;81;20155;-78
2022/12/26 02:24:44;;;;;;;66.62;36.13;;;;;;;2.44;100.00;98101.45;1761983;81;20952;-79
2022/12/26 02:27:36;;;;;;;69.60;37.45;;;;;;;2.46;100.00;98100.70;1762288;81;21006;-79
2022/12/26 02:30:08;;;;;;;81.92;41.08;;;;;;;2.47;100.00;98107.16;1761343;81;20988;-79
2022/12/26 02:32:56;;;;;;;60.73;34.75;;;;;;;2.53;100.00;98098.23;1762198;81;21063;-79
2022/12/26 02:35:54;;;;;;;57.83;29.02;;;;;;;2.55;100.00;98082.77;1762275;81;21054;-78
2022/12/26 02:38:53;;;;;;;51.48;26.65;;;;;;;2.54;100.00;98087.83;1762225;81;20987;-79
2022/12/26 02:41:55;;;;;;;46.28;24.60;;;;;;;2.41;100.00;98083.19;1761117;81;21130;-79
2022/12/26 02:47:39;;;;;;;40.03;25.77;;;;;;;2.54;100.00;98073.11;1769581;81;21032;-79
2022/12/26 03:13:36;;;;;;;29.20;17.23;;;;;;;2.90;100.00;98005.78;1712341;81;20979;-79
2022/12/26 03:19:01;;;;;;;33.83;19.48;;;;;;;2.77;100.00;97992.11;1752418;81;21062;-81
2022/12/26 03:21:33;;;;;;;33.75;20.20;;;;;;;2.79;100.00;97976.63;1752632;81;21432;-79
2022/12/26 03:24:00;;;;;;;32.48;17.98;;;;;;;2.77;100.00;97959.18;1752294;81;21002;-79
2022/12/26 03:26:39;;;;;;;30.30;17.92;;;;;;;2.80;100.00;97954.17;1752502;81;21451;-78
2022/12/26 03:31:58;;;;;;;36.35;20.15;;;;;;;2.78;100.00;97952.78;1752618;81;20986;-78
2022/12/26 03:34:25;;;;;;;32.75;19.82;;;;;;;2.69;100.00;97962.19;1752405;81;21053;-79
2022/12/26 03:37:21;;;;;;;37.55;21.52;;;;;;;2.60;100.00;97960.38;1752993;81;21160;-78
2022/12/26 04:19:25;;;;;;;34.75;22.70;;;;;;;2.59;100.00;97994.05;1752069;81;21018;-79
2022/12/26 04:44:33;;;;;;;31.35;19.32;;;;;;;2.60;100.00;97960.38;1751173;81;21044;-78
2022/12/26 04:47:00;;;;;;;31.15;17.77;;;;;;;2.64;100.00;97963.39;1772257;81;21440;-80
2022/12/26 04:52:13;;;;;;;25.72;15.75;;;;;;;2.63;100.00;97948.39;1751600;81;21370;-79
2022/12/26 04:54:41;;;;;;;23.50;13.00;;;;;;;2.66;100.00;97952.78;1771892;81;20972;-79
2022/12/26 04:57:08;;;;;;;27.62;14.55;;;;;;;2.64;100.00;97946.00;1761343;81;20998;-79
2022/12/26 04:59:34;;;;;;;28.20;14.30;;;;;;;2.70;100.00;97953.93;1760527;81;21005;-79
2022/12/26 05:10:25;;;;;;;22.55;12.33;;;;;;;2.85;100.00;97941.45;1760339;81;21017;-80
2022/12/26 05:12:52;;;;;;;24.87;13.32;;;;;;;2.89;100.00;97935.91;1760699;81;21453;-78
2022/12/26 05:15:19;;;;;;;20.35;11.73;;;;;;;2.90;100.00;97949.58;1760313;81;21028;-78
2022/12/26 05:28:43;;;;;;;24.60;15.08;;;;;;;2.86;100.00;97953.78;1734154;82;21024;-79
2022/12/26 05:31:13;;;;;;;19.95;13.78;;;;;;;2.92;100.00;97952.05;1734360;82;21456;-78
2022/12/26 05:36:33;;;;;;;22.85;12.73;;;;;;;2.83;100.00;97934.18;1734403;82;21172;-79
2022/12/26 05:39:00;;;;;;;22.70;11.90;;;;;;;2.78;100.00;97944.23;1734308;82;20984;-79
2022/12/26 05:41:27;;;;;;;29.65;19.57;;;;;;;2.82;100.00;97940.05;1743690;81;21414;-79
2022/12/26 05:43:54;;;;;;;24.65;15.38;;;;;;;2.85;100.00;97954.02;1746595;82;21040;-78
2022/12/26 05:46:21;;;;;;;19.25;12.05;;;;;;;2.80;100.00;97960.05;1769799;81;21401;-79
2022/12/26 05:48:48;;;;;;;24.10;13.32;;;;;;;2.90;100.00;97954.11;1746793;82;21021;-79
2022/12/26 05:51:15;;;;;;;51.83;25.97;;;;;;;2.99;100.00;97956.24;1769668;81;21051;-79
2022/12/26 05:53:42;;;;;;;21.82;13.20;;;;;;;3.03;100.00;97947.20;1769557;81;21170;-79
2022/12/26 05:56:14;;;;;;;17.73;12.10;;;;;;;3.10;100.00;97948.72;1764697;81;20989;-79
2022/12/26 05:58:41;;;;;;;20.65;11.85;;;;;;;3.17;100.00;97958.52;1732868;82;22001;-79
2022/12/26 06:01:12;;;;;;;18.30;11.65;;;;;;;3.19;100.00;97965.25;1752144;81;21018;-80
2022/12/26 06:03:42;;;;;;;16.55;10.88;;;;;;;3.20;100.00;97964.20;1732869;82;21011;-79
2022/12/26 06:06:08;;;;;;;16.73;11.15;;;;;;;3.19;100.00;97953.73;1752267;81;21040;-78
2022/12/26 06:08:36;;;;;;;18.80;11.78;;;;;;;3.23;100.00;97961.58;1732907;82;20976;-78
2022/12/26 06:11:06;;;;;;;19.10;11.00;;;;;;;3.28;100.00;97967.87;1751989;81;21439;-79
2022/12/26 06:13:33;;;;;;;22.30;12.73;;;;;;;3.35;100.00;97971.77;1724704;81;20970;-78
2022/12/26 06:16:12;;;;;;;22.90;13.48;;;;;;;3.37;100.00;97973.16;1752406;81;21419;-78
2022/12/26 06:18:39;;;;;;;;;;;;;;;3.44;100.00;97968.21;1755106;81;21028;-79
2022/12/26 06:21:11;;;;;;;10.85;6.10;;;;;;;3.80;100.00;97979.96;1752267;81;20987;-78
2022/12/26 06:23:38;;;;;;;9.58;5.53;;;;;;;4.52;100.00;97972.20;1752405;81;21011;-80
2022/12/26 06:26:08;;;;;;;9.08;5.28;;;;;;;5.39;100.00;97966.88;1724627;81;38707;-79
2022/12/26 06:28:35;;;;;;;9.13;5.60;;;;;;;6.04;100.00;97966.65;1752309;81;21454;-78
2022/12/26 06:31:09;;;;;;;11.45;5.75;;;;;;;6.38;100.00;97965.94;1752162;81;21212;-79
2022/12/26 06:33:36;;;;;;;14.90;8.48;;;;;;;6.60;100.00;97977.48;1752433;81;21030;-80
2022/12/26 06:36:09;;;;;;;17.37;13.35;;;;;;;6.61;100.00;97983.68;1752246;81;21353;-79
2022/12/26 06:38:36;;;;;;;14.23;9.03;;;;;;;6.31;100.00;98003.00;1752458;81;21026;-80
2022/12/26 06:41:09;;;;;;;15.08;7.78;;;;;;;6.08;100.00;97993.34;1753971;81;21036;-80
2022/12/26 06:43:36;;;;;;;14.87;9.25;;;;;;;5.86;100.00;97992.77;1751267;81;21111;-79
2022/12/26 06:46:04;;;;;;;12.98;8.85;;;;;;;5.53;100.00;97988.83;1771782;81;20972;-78
2022/12/26 06:48:31;;;;;;;10.80;8.27;;;;;;;5.29;100.00;97994.39;1772158;81;20968;-79
2022/12/26 06:51:04;;;;;;;31.12;18.75;;;;;;;5.03;100.00;97992.38;1771661;81;21029;-78
2022/12/26 06:53:32;;;;;;;19.42;12.15;;;;;;;4.86;100.00;98004.98;1771739;81;21017;-80
2022/12/26 06:56:12;;;;;;;21.83;12.50;;;;;;;4.58;100.00;98017.39;1741971;81;21530;-78
2022/12/26 06:58:39;;;;;;;25.77;13.50;;;;;;;4.41;100.00;98038.01;1770059;81;21510;-78
2022/12/26 07:01:15;;;;;;;19.15;11.78;;;;;;;4.34;100.00;98031.97;1770109;81;21011;-78
2022/12/26 07:03:42;;;;;;;20.02;10.50;;;;;;;4.28;100.00;98024.89;1770119;81;21503;-78
2022/12/26 07:06:24;;;;;;;99.22;49.95;;;;;;;4.19;100.00;98021.25;1780761;80;20999;-79
2022/12/26 07:08:53;;;;;;;65.17;34.67;;;;;;;4.22;100.00;98026.13;1762354;81;21712;-79
2022/12/26 07:11:22;;;;;;;47.78;25.82;;;;;;;4.35;100.00;98029.03;1762051;81;21436;-80
2022/12/26 07:13:49;;;;;;;27.48;17.50;;;;;;;4.43;100.00;98020.61;1761934;81;21003;-79
2022/12/26 07:16:16;;;;;;;27.42;17.27;;;;;;;4.48;100.00;98025.27;1761888;81;20993;-79
2022/12/26 07:18:43;;;;;;;40.98;23.30;;;;;;;4.48;100.00;98030.11;1731908;81;20988;-78
2022/12/26 07:21:12;;;;;;;44.95;22.80;;;;;;;4.49;100.00;98029.05;1761830;81;21091;-79
2022/12/26 07:23:39;;;;;;;29.15;17.40;;;;;;;4.56;100.00;98034.80;1761938;81;21074;-78
2022/12/26 07:26:06;;;;;;;51.53;26.50;;;;;;;4.78;100.00;98034.37;1761966;81;21575;-78
2022/12/26 07:28:33;;;;;;;40.23;20.02;;;;;;;4.98;100.00;98025.88;1761943;81;20999;-80
2022/12/26 07:31:00;;;;;;;31.60;21.50;;;;;;;5.24;100.00;98009.11;1761916;81;21088;-79
2022/12/26 07:33:27;;;;;;;39.60;24.10;;;;;;;5.47;100.00;98008.12;1761860;81;21741;-79
2022/12/26 07:36:00;;;;;;;30.37;17.85;;;;;;;5.69;100.00;97997.91;1731645;81;21007;-79
2022/12/26 07:38:26;;;;;;;22.32;14.38;;;;;;;5.91;100.00;98007.67;1762057;81;21027;-80
2022/12/26 07:40:55;;;;;;;27.40;18.92;;;;;;;6.14;100.00;97998.51;1761666;81;20983;-80
2022/12/26 07:43:22;;;;;;;100.87;44.55;;;;;;;6.33;100.00;97993.63;1746530;82;21048;-80
2022/12/26 07:45:49;;;;;;;37.28;17.48;;;;;;;6.48;100.00;98001.84;1769314;81;21063;-79
2022/12/26 07:48:16;;;;;;;13.70;8.68;;;;;;;6.75;100.00;98002.38;1746611;82;20970;-80
2022/12/26 07:50:46;;;;;;;19.80;11.25;;;;;;;7.23;100.00;97985.81;1769188;81;21032;-79
2022/12/26 07:53:13;;;;;;;78.25;30.30;;;;;;;7.50;100.00;97988.41;1769685;81;28129;-80
2022/12/26 07:55:41;;;;;;;22.87;11.53;;;;;;;7.77;100.00;97992.33;1764928;80;21048;-80
2022/12/26 07:58:07;;;;;;;44.23;18.85;;;;;;;7.97;100.00;98005.13;1784362;80;21099;-80
2022/12/26 08:00:34;;;;;;;43.40;19.55;;;;;;;8.08;100.00;98007.59;1793279;80;20949;-80
2022/12/26 08:03:01;;;;;;;26.05;13.25;;;;;;;8.20;100.00;98013.61;1784598;80;20962;-78
2022/12/26 08:05:28;;;;;;;24.92;12.23;;;;;;;8.27;100.00;98016.58;1770380;80;21386;-80
2022/12/26 08:07:55;;;;;;;31.17;14.98;;;;;;;8.33;100.00;97998.78;1758875;80;21015;-80
2022/12/26 08:10:22;;;;;;;72.42;32.98;;;;;;;8.38;100.00;98007.48;1740691;80;20981;-79
2022/12/26 08:12:49;;;;;;;18.30;11.55;;;;;;;8.45;100.00;98022.88;1762290;80;21460;-78
2022/12/26 08:15:16;;;;;;;12.10;7.28;;;;;;;8.57;100.00;98028.86;1762025;81;20984;-80
2022/12/26 08:17:43;;;;;;;10.60;6.45;;;;;;;8.69;100.00;98025.37;1762104;81;21010;-79
2022/12/26 08:20:10;;;;;;;13.88;7.47;;;;;;;8.88;100.00;98019.45;1762003;81;21031;-79
2022/12/26 08:22:37;;;;;;;9.85;5.25;;;;;;;8.95;100.00;98016.76;1762130;81;21147;-79
2022/12/26 08:25:05;;;;;;;10.63;6.03;;;;;;;9.09;100.00;98014.89;1761926;81;21011;-80
2022/12/26 08:27:32;;;;;;;8.60;5.45;;;;;;;9.21;100.00;98013.52;1762210;81;21067;-79
2022/12/26 08:29:59;;;;;;;5.37;4.37;;;;;;;9.33;100.00;98012.73;1762090;81;21051;-80
2022/12/26 08:32:26;;;;;;;7.37;3.98;;;;;;;9.44;100.00;98010.00;1762189;81;21040;-79
2022/12/26 08:34:53;;;;;;;5.17;3.75;;;;;;;9.48;100.00;98007.82;1774241;80;21075;-80
2022/12/26 08:37:22;;;;;;;6.78;4.15;;;;;;;9.58;100.00;98021.36;1793585;80;20926;-80
2022/12/26 08:39:52;;;;;;;5.95;3.75;;;;;;;9.69;100.00;98026.74;1755135;80;21110;-80
2022/12/26 08:42:20;;;;;;;7.35;5.10;;;;;;;9.73;100.00;98028.61;1745792;79;21348;-81
2022/12/26 08:44:47;;;;;;;6.53;3.63;;;;;;;9.80;100.00;98026.44;1756653;79;21233;-81
2022/12/26 08:47:14;;;;;;;6.33;4.10;;;;;;;9.96;100.00;98027.76;1755569;79;20976;-81
2022/12/26 08:49:41;;;;;;;7.28;4.12;;;;;;;9.94;100.00;98027.23;1754266;79;21023;-79
2022/12/26 08:52:08;;;;;;;6.22;4.03;;;;;;;10.01;100.00;98033.17;1766246;79;21032;-81
2022/12/26 08:54:35;;;;;;;10.95;4.95;;;;;;;10.06;100.00;98027.72;1742851;79;21032;-79
2022/12/26 08:57:02;;;;;;;8.65;6.03;;;;;;;10.12;100.00;98036.10;1734339;82;21071;-79
2022/12/26 08:59:29;;;;;;;10.58;6.17;;;;;;;10.17;100.00;98031.48;1734217;82;21019;-80
2022/12/26 09:01:56;;;;;;;15.40;8.23;;;;;;;10.17;100.00;98034.74;1734194;82;21011;-79
2022/12/26 09:04:23;;;;;;;6.80;4.50;;;;;;;10.20;100.00;98042.30;1734109;82;21074;-81
2022/12/26 09:06:50;;;;;;;8.53;4.78;;;;;;;10.25;99.12;98039.59;1734198;82;21451;-80
2022/12/26 09:09:17;;;;;;;7.58;5.72;;;;;;;10.26;99.35;98038.53;1734329;82;21019;-80
2022/12/26 09:11:44;;;;;;;6.70;4.95;;;;;;;10.31;99.95;98040.39;1734060;82;21179;-81
2022/12/26 09:14:11;;;;;;;9.30;6.17;;;;;;;10.33;98.55;98033.59;1734174;82;21015;-80
2022/12/26 09:16:45;;;;;;;10.10;5.90;;;;;;;10.37;98.14;98050.13;1734084;82;21043;-79
2022/12/26 09:19:15;;;;;;;9.15;5.08;;;;;;;10.44;97.84;98044.67;1734057;82;21016;-80
2022/12/26 09:21:42;;;;;;;10.32;6.72;;;;;;;10.50;99.24;98048.16;1734167;82;21027;-81
2022/12/26 09:24:12;;;;;;;8.13;3.95;;;;;;;10.62;97.96;98054.07;1743089;79;21055;-81
2022/12/26 09:26:39;;;;;;;9.13;5.15;;;;;;;10.65;98.33;98060.28;1734579;79;21082;-79
2022/12/26 09:29:07;;;;;;;8.55;6.28;;;;;;;10.62;98.91;98058.13;1757699;79;20997;-79
2022/12/26 09:31:34;;;;;;;10.05;6.35;;;;;;;10.70;97.97;98060.81;1786923;79;21477;-81
2022/12/26 09:34:02;;;;;;;52.60;29.50;;;;;;;10.68;99.90;98058.90;1762613;79;20969;-80
2022/12/26 09:36:34;;;;;;;12.28;7.45;;;;;;;10.70;99.65;98060.81;1796033;79;20997;-81
2022/12/26 09:39:01;;;;;;;6.78;4.58;;;;;;;10.70;99.21;98058.09;1796021;79;20962;-81
2022/12/26 09:41:54;;;;;;;15.40;9.20;;;;;;;10.70;100.00;98052.13;1786003;79;21051;-79
2022/12/26 09:45:00;;;;;;;5.83;3.85;;;;;;;10.74;99.75;98040.17;1764081;81;21428;-81
2022/12/26 09:47:34;;;;;;;8.60;5.65;;;;;;;10.74;99.04;98053.18;1764636;81;20979;-79
2022/12/26 09:50:20;;;;;;;8.83;4.83;;;;;;;10.75;98.78;98071.61;1764762;81;21040;-79
2022/12/26 09:52:57;;;;;;;7.83;4.35;;;;;;;10.71;98.09;98068.66;1758533;81;21190;-80
2022/12/26 09:55:38;;;;;;;12.65;7.37;;;;;;;10.73;98.08;98067.02;1757092;81;20995;-79
2022/12/26 09:58:47;;;;;;;7.45;4.55;;;;;;;10.75;98.19;98058.05;1734427;82;21028;-79
2022/12/26 10:01:22;;;;;;;10.28;6.55;;;;;;;10.75;98.36;98060.77;1734367;82;21479;-81
2022/12/26 10:03:55;;;;;;;14.53;7.72;;;;;;;10.82;97.57;98055.05;1732324;82;21077;-79
2022/12/26 10:06:32;;;;;;;11.33;6.97;;;;;;;10.90;96.87;98049.03;1734093;82;20980;-79
2022/12/26 10:09:28;;;;;;;8.23;5.58;;;;;;;10.96;97.66;98032.45;1734102;82;20969;-79
2022/12/26 10:12:16;;;;;;;14.68;7.55;;;;;;;11.03;98.39;98026.72;1734142;82;21971;-81
2022/12/26 10:14:58;;;;;;;10.03;6.50;;;;;;;11.16;96.48;98025.26;1734209;81;21048;-81
2022/12/26 10:17:56;;;;;;;8.48;4.20;;;;;;;11.19;96.14;98045.83;1722408;79;21045;-81
2022/12/26 10:21:05;;;;;;;8.28;3.90;;;;;;;11.26;97.39;98060.44;1796349;79;21513;-79
2022/12/26 10:23:41;;;;;;;7.22;4.45;;;;;;;11.32;95.01;98063.38;1795798;79;21048;-80
2022/12/26 10:26:37;;;;;;;9.00;4.92;;;;;;;11.30;94.70;98057.44;1796020;79;21449;-79
2022/12/26 10:29:13;;;;;;;7.25;4.83;;;;;;;11.19;95.26;98053.16;1796063;79;20961;-79
2022/12/26 10:32:09;;;;;;;6.95;4.70;;;;;;;11.09;95.97;98052.69;1795655;79;21036;-81
2022/12/26 10:34:43;;;;;;;7.90;4.25;;;;;;;11.06;95.21;98054.62;1795957;79;20962;-79
2022/12/26 10:37:35;;;;;;;7.12;4.47;;;;;;;11.04;94.87;98058.72;1796220;79;21032;-81
2022/12/26 10:40:19;;;;;;;8.35;5.55;;;;;;;11.01;94.86;98050.03;1762729;79;21008;-79
2022/12/26 10:42:52;;;;;;;12.85;6.33;;;;;;;11.01;95.77;98041.89;1741642;79;21576;-79
2022/12/26 10:45:37;;;;;;;7.58;4.67;;;;;;;11.08;94.85;98036.70;1734340;82;21039;-79
2022/12/26 10:48:04;;;;;;;6.15;4.35;;;;;;;10.99;95.90;98025.10;1734094;81;21091;-79
2022/12/26 10:50:33;;;;;;;19.15;8.75;;;;;;;10.97;95.87;98010.22;1734340;82;21009;-79
2022/12/26 10:53:03;;;;;;;14.65;6.25;;;;;;;10.91;96.43;98001.84;1734474;82;20976;-81
2022/12/26 10:55:32;;;;;;;10.38;4.42;;;;;;;10.91;96.14;97993.17;1734362;82;21145;-80
2022/12/26 10:58:12;;;;;;;;;;;;;;;10.99;95.99;97991.76;1740210;81;21099;-79
2022/12/26 11:00:39;;;;;;;7.50;4.60;;;;;;;11.00;94.83;97993.38;1764558;81;20184;-81
2022/12/26 11:03:14;;;;;;;9.78;5.28;;;;;;;11.05;93.38;97992.54;1764521;81;21010;-79
2022/12/26 11:05:47;;;;;;;6.12;4.17;;;;;;;11.15;95.09;97987.03;1764700;81;20991;-79
2022/12/26 11:08:36;;;;;;;6.80;4.12;;;;;;;11.28;95.73;97997.24;1764617;81;21491;-80
2022/12/26 11:11:13;;;;;;;6.97;4.30;;;;;;;11.37;95.81;98007.73;1696502;84;21053;-80
2022/12/26 11:13:46;;;;;;;10.28;5.05;;;;;;;11.45;94.13;98011.20;1743708;81;21051;-81
2022/12/26 11:16:13;;;;;;;8.53;4.87;;;;;;;11.53;95.48;98014.62;1757866;81;21015;-79
2022/12/26 11:18:49;;;;;;;9.33;5.50;;;;;;;11.67;94.34;98016.12;1714134;81;21468;-79
2022/12/26 11:21:27;;;;;;;18.62;8.23;;;;;;;11.57;95.03;98009.45;1764535;81;21440;-79
2022/12/26 11:24:07;;;;;;;;;;;;;;;11.54;93.87;98008.67;1767015;81;21488;-81
2022/12/26 11:26:34;;;;;;;57.03;25.82;;;;;;;11.55;94.10;98001.59;1761823;81;20479;-81
2022/12/26 11:29:20;;;;;;;41.10;17.12;;;;;;;11.58;94.51;98008.34;1764598;81;20964;-79
2022/12/26 11:32:00;;;;;;;12.37;6.97;;;;;;;11.57;95.16;98008.09;1764401;81;21435;-81
2022/12/26 11:34:35;;;;;;;11.10;5.50;;;;;;;11.65;95.34;98000.68;1764431;81;21035;-80
2022/12/26 11:37:03;;;;;;;10.28;6.95;;;;;;;11.76;95.39;98010.33;1763407;81;21472;-81
2022/12/26 11:39:35;;;;;;;11.15;6.50;;;;;;;11.85;95.17;97999.68;1764260;81;21090;-81
2022/12/26 11:42:15;;;;;;;11.10;6.92;;;;;;;11.93;94.84;97995.53;1747827;81;21008;-79
2022/12/26 11:44:44;;;;;;;12.37;8.28;;;;;;;11.98;95.35;97995.48;1733828;82;21041;-80
2022/12/26 11:47:14;;;;;;;11.15;5.58;;;;;;;12.02;95.19;97992.44;1734254;82;21039;-81
2022/12/26 11:49:52;;;;;;;12.93;6.58;;;;;;;12.05;94.19;97991.88;1734037;82;21023;-80
2022/12/26 11:52:43;;;;;;;12.88;8.05;;;;;;;12.02;94.89;97991.08;1718358;82;21005;-80
2022/12/26 11:55:33;;;;;;;14.87;7.70;;;;;;;11.99;94.98;97984.33;1734235;82;21058;-79
2022/12/26 11:58:09;;;;;;;26.27;13.30;;;;;;;11.97;95.24;97988.44;1733413;82;21015;-81
2022/12/26 12:00:40;;;;;;;33.90;15.43;;;;;;;11.94;94.17;97988.45;1725662;82;21593;-79
2022/12/26 12:03:22;;;;;;;15.43;9.10;;;;;;;11.95;95.07;97983.82;1734092;82;21493;-81
2022/12/26 12:06:12;;;;;;;23.10;12.98;;;;;;;11.91;92.93;97976.01;1734187;81;21249;-81
2022/12/26 12:09:18;;;;;;;73.62;31.33;;;;;;;11.91;94.58;97975.45;1734119;82;21562;-81
2022/12/26 12:12:00;;;;;;;31.50;17.20;;;;;;;11.94;95.50;97972.16;1734134;82;21011;-81
2022/12/26 12:14:45;;;;;;;17.60;9.48;;;;;;;11.98;95.39;97978.64;1734157;82;20991;-79
2022/12/26 12:17:45;;;;;;;20.68;9.55;;;;;;;11.99;95.87;97982.16;1734158;82;21892;-81
2022/12/26 12:20:40;;;;;;;18.27;10.65;;;;;;;11.90;95.20;97975.20;1701701;82;21078;-79
2022/12/26 12:23:42;;;;;;;16.40;10.00;;;;;;;11.77;94.08;97965.80;1734199;82;20988;-79
2022/12/26 12:26:21;;;;;;;18.62;10.13;;;;;;;11.66;95.27;97961.58;1734438;82;21007;-81
2022/12/26 12:29:21;;;;;;;23.62;13.90;;;;;;;11.63;95.68;97960.81;1733876;82;21071;-81
2022/12/26 12:32:14;;;;;;;23.45;12.40;;;;;;;11.57;94.85;97967.38;1733821;82;22092;-81
2022/12/26 12:35:19;;;;;;;22.45;12.73;;;;;;;11.47;95.83;97947.95;1734016;82;21530;-81
2022/12/26 12:38:23;;;;;;;12.88;6.08;;;;;;;11.41;95.22;97947.73;1734071;82;21150;-80
2022/12/26 12:41:08;;;;;;;10.93;6.05;;;;;;;11.43;93.43;97933.32;1735880;81;20995;-79
2022/12/26 12:43:55;;;;;;;44.73;23.18;;;;;;;11.50;91.64;97936.51;1764571;81;20987;-79
2022/12/26 12:46:28;;;;;;;33.55;17.45;;;;;;;11.44;93.58;97947.14;1764570;81;21049;-81
2022/12/26 12:49:46;;;;;;;30.52;16.90;;;;;;;11.50;94.65;97951.43;1764446;81;21432;-81
2022/12/26 12:52:44;;;;;;;26.65;14.95;;;;;;;11.55;95.09;97962.25;1764816;81;21468;-81
2022/12/26 12:55:44;;;;;;;21.17;9.77;;;;;;;11.48;93.94;97950.11;1760235;81;21000;-78
2022/12/26 12:58:25;;;;;;;16.70;8.73;;;;;;;11.41;93.88;97946.92;1734446;82;20984;-81
2022/12/26 13:01:04;;;;;;;16.12;8.60;;;;;;;11.39;94.54;97946.41;1734096;82;21782;-79
2022/12/26 13:03:39;;;;;;;11.88;6.45;;;;;;;11.39;93.66;97948.56;1733689;82;21473;-81
2022/12/26 13:06:15;;;;;;;18.95;10.90;;;;;;;11.39;93.14;97944.50;1734518;82;21024;-79
2022/12/26 13:08:52;;;;;;;12.30;7.03;;;;;;;11.35;93.34;97943.44;1734152;82;20981;-79
2022/12/26 13:11:31;;;;;;;17.92;10.25;;;;;;;11.33;92.72;97944.28;1734317;82;21031;-79
2022/12/26 13:14:24;;;;;;;23.32;12.37;;;;;;;11.24;93.43;97946.80;1733352;81;21206;-79
2022/12/26 13:17:14;;;;;;;23.10;8.60;;;;;;;11.24;94.41;97950.87;1668792;86;21066;-81
2022/12/26 13:19:51;;;;;;;43.05;22.20;;;;;;;11.32;92.73;97950.00;1668549;84;20994;-79
2022/12/26 13:24:22;;;;;;;63.13;34.13;;;;;;;11.28;92.49;97947.06;1704604;82;21048;-81
2022/12/26 13:25:03;;;;;;;58.92;37.08;;;;;;;11.23;92.49;97951.97;1729617;82;21086;-80
2022/12/26 13:27:34;;;;;;;42.53;24.80;;;;;;;11.23;92.50;97945.73;1734173;82;21020;-81
2022/12/26 13:30:01;;;;;;;42.27;20.57;;;;;;;11.16;93.26;97952.84;1734147;82;21448;-78
2022/12/26 13:32:30;;;;;;;23.27;13.75;;;;;;;11.22;92.89;97953.06;1679908;82;21050;-79
2022/12/26 13:34:59;;;;;;;32.93;16.55;;;;;;;11.19;93.17;97960.39;1734536;82;20981;-79
2022/12/26 13:37:51;;;;;;;31.37;16.95;;;;;;;11.16;92.81;97964.23;1734132;82;21075;-81
2022/12/26 13:40:20;;;;;;;14.15;8.05;;;;;;;11.17;92.93;97968.02;1734424;82;21505;-81
2022/12/26 13:45:55;;;;;;;18.23;12.43;;;;;;;11.18;92.94;97968.27;1764758;80;20209;-81
2022/12/26 13:48:31;;;;;;;22.17;9.93;;;;;;;11.15;93.13;97949.06;1764395;81;21027;-81
2022/12/26 13:51:00;;;;;;;29.42;17.52;;;;;;;11.14;93.59;97954.23;1764771;81;21007;-81
2022/12/26 13:53:40;;;;;;;37.75;19.35;;;;;;;11.13;93.52;97964.27;1757285;81;21162;-79
2022/12/26 13:56:22;;;;;;;26.82;14.50;;;;;;;11.08;93.61;97960.23;1747815;81;21477;-81
2022/12/26 13:59:11;;;;;;;43.42;22.85;;;;;;;11.07;93.76;97952.39;1734351;82;21044;-81